createdAt,value
2022-10-14T00:00:11.616Z,101491.29
2022-10-14T00:02:40.158Z,101495.61
2022-10-14T00:05:10.223Z,101487.80
2022-10-14T00:07:40.205Z,101498.09
2022-10-14T00:10:09.811Z,101484.06
2022-10-14T00:12:39.209Z,101484.34
2022-10-14T00:15:10.095Z,101476.83
2022-10-14T00:17:39.658Z,101476.56
2022-10-14T00:20:09.919Z,101472.55
2022-10-14T00:22:39.268Z,101463.92
2022-10-14T00:25:09.252Z,101454.18
2022-10-14T00:27:38.782Z,101450.13
2022-10-14T00:30:10.823Z,101454.72
2022-10-14T00:32:40.089Z,101451.48
2022-10-14T00:35:11.245Z,101450.70
2022-10-14T00:37:40.882Z,101452.88
2022-10-14T00:40:11.380Z,101451.80
2022-10-14T00:42:40.728Z,101447.75
2022-10-14T00:45:15.637Z,101445.09
2022-10-14T00:47:45.478Z,101441.84
2022-10-14T00:50:16.981Z,101429.75
2022-10-14T00:52:46.870Z,101414.95
2022-10-14T00:55:18.953Z,101414.14
2022-10-14T00:57:48.557Z,101401.97
2022-10-14T01:00:19.306Z,101400.08
2022-10-14T01:02:48.984Z,101401.69
2022-10-14T01:05:19.467Z,101402.00
2022-10-14T01:08:07.246Z,101397.11
2022-10-14T01:10:48.785Z,101392.52
2022-10-14T01:13:27.478Z,101381.77
2022-10-14T01:16:07.778Z,101385.27
2022-10-14T01:18:46.037Z,101389.32
2022-10-14T01:21:24.029Z,101381.80
2022-10-14T01:23:56.649Z,101375.32
2022-10-14T01:26:38.957Z,101372.89
2022-10-14T01:29:43.589Z,101368.84
2022-10-14T01:32:41.416Z,101363.17
2022-10-14T01:35:48.909Z,101365.87
2022-10-14T01:38:36.483Z,101366.41
2022-10-14T01:41:22.007Z,101368.30
2022-10-14T01:43:53.210Z,101382.07
2022-10-14T01:46:24.184Z,101382.64
2022-10-14T01:48:59.484Z,101378.05
2022-10-14T01:51:34.655Z,101378.86
2022-10-14T01:54:06.435Z,101376.44
2022-10-14T01:56:40.523Z,101367.26
2022-10-14T01:59:10.707Z,101364.86
2022-10-14T02:01:40.184Z,101361.59
2022-10-14T02:04:18.512Z,101356.77
2022-10-14T02:07:02.943Z,101360.27
2022-10-14T02:09:42.063Z,101363.20
2022-10-14T02:12:23.950Z,101371.88
2022-10-14T02:14:56.708Z,101369.17
2022-10-14T02:17:30.082Z,101363.23
2022-10-14T02:20:02.383Z,101360.54
2022-10-14T02:22:35.044Z,101360.27
2022-10-14T02:25:16.187Z,101357.03
2022-10-14T02:27:47.132Z,101358.14
2022-10-14T02:30:18.570Z,101360.00
2022-10-14T02:32:51.036Z,101356.46
2022-10-14T02:35:21.537Z,101351.91
2022-10-14T02:37:51.600Z,101349.47
2022-10-14T02:40:30.015Z,101338.41
2022-10-14T02:42:59.510Z,101342.19
2022-10-14T02:45:28.863Z,101335.98
2022-10-14T02:47:58.267Z,101333.55
2022-10-14T02:50:27.674Z,101329.26
2022-10-14T02:52:56.922Z,101324.09
2022-10-14T02:55:26.535Z,101323.83
2022-10-14T02:57:56.141Z,101318.70
2022-10-14T03:00:27.254Z,101315.73
2022-10-14T03:02:57.377Z,101313.88
2022-10-14T03:05:28.028Z,101313.84
2022-10-14T03:07:57.369Z,101305.75
2022-10-14T03:10:28.387Z,101299.78
2022-10-14T03:12:58.341Z,101301.70
2022-10-14T03:15:29.309Z,101296.30
2022-10-14T03:17:59.009Z,101302.78
2022-10-14T03:20:30.164Z,101297.38
2022-10-14T03:22:59.983Z,101290.09
2022-10-14T03:25:29.486Z,101283.08
2022-10-14T03:28:00.470Z,101286.59
2022-10-14T03:30:31.569Z,101287.13
2022-10-14T03:33:02.941Z,101283.05
2022-10-14T03:35:48.985Z,101278.19
2022-10-14T03:38:19.935Z,101279.27
2022-10-14T03:40:49.763Z,101276.03
2022-10-14T03:43:19.469Z,101277.66
2022-10-14T03:45:54.136Z,101270.37
2022-10-14T03:48:25.137Z,101272.26
2022-10-14T03:50:56.260Z,101270.37
2022-10-14T03:53:26.139Z,101266.05
2022-10-14T03:55:56.222Z,101261.46
2022-10-14T03:58:26.749Z,101249.61
2022-10-14T04:00:58.337Z,101253.09
2022-10-14T04:03:29.279Z,101260.11
2022-10-14T04:05:58.796Z,101254.47
2022-10-14T04:08:29.414Z,101248.80
2022-10-14T04:11:00.361Z,101249.34
2022-10-14T04:13:31.507Z,101243.13
2022-10-14T04:16:09.188Z,101240.70
2022-10-14T04:18:40.232Z,101233.41
2022-10-14T04:21:13.123Z,101230.45
2022-10-14T04:23:44.379Z,101235.03
2022-10-14T04:26:15.310Z,101236.11
2022-10-14T04:28:46.469Z,101232.88
2022-10-14T04:31:17.573Z,101236.66
2022-10-14T04:33:51.640Z,101237.21
2022-10-14T04:36:22.641Z,101234.22
2022-10-14T04:38:51.953Z,101226.66
2022-10-14T04:41:21.349Z,101232.06
2022-10-14T04:43:51.160Z,101226.94
2022-10-14T04:46:27.864Z,101217.78
2022-10-14T04:48:57.484Z,101211.81
2022-10-14T04:51:28.592Z,101213.17
2022-10-14T04:54:02.483Z,101214.00
2022-10-14T04:56:33.451Z,101209.95
2022-10-14T04:59:04.238Z,101211.02
2022-10-14T05:01:52.037Z,101206.19
2022-10-14T05:04:22.658Z,101205.09
2022-10-14T05:06:52.774Z,101208.61
2022-10-14T05:09:22.113Z,101207.80
2022-10-14T05:11:52.319Z,101202.14
2022-10-14T05:14:23.933Z,101199.17
2022-10-14T05:16:55.152Z,101195.12
2022-10-14T05:19:26.185Z,101185.66
2022-10-14T05:21:55.910Z,101183.24
2022-10-14T05:24:29.811Z,101176.76
2022-10-14T05:26:59.221Z,101176.76
2022-10-14T05:29:30.249Z,101171.89
2022-10-14T05:32:00.454Z,101172.45
2022-10-14T05:34:35.949Z,101166.79
2022-10-14T05:37:06.421Z,101164.61
2022-10-14T05:39:37.408Z,101159.51
2022-10-14T05:42:07.123Z,101160.58
2022-10-14T05:44:36.495Z,101158.16
2022-10-14T05:47:10.776Z,101158.15
2022-10-14T05:49:41.045Z,101158.69
2022-10-14T05:52:10.705Z,101155.72
2022-10-14T05:54:40.499Z,101151.13
2022-10-14T05:57:10.895Z,101147.34
2022-10-14T05:59:40.754Z,101143.02
2022-10-14T06:02:11.041Z,101146.83
2022-10-14T06:04:42.059Z,101149.53
2022-10-14T06:07:11.470Z,101146.81
2022-10-14T06:09:41.042Z,101143.57
2022-10-14T06:12:10.903Z,101141.14
2022-10-14T06:14:40.213Z,101140.88
2022-10-14T06:17:09.461Z,101144.64
2022-10-14T06:19:39.318Z,101137.89
2022-10-14T06:22:08.818Z,101129.28
2022-10-14T06:24:38.124Z,101134.67
2022-10-14T06:27:07.508Z,101143.86
2022-10-14T06:29:38.743Z,101135.21
2022-10-14T06:32:09.363Z,101132.25
2022-10-14T06:34:38.799Z,101132.25
2022-10-14T06:37:08.061Z,101128.45
2022-10-14T06:39:37.866Z,101127.92
2022-10-14T06:42:12.143Z,101130.62
2022-10-14T06:44:38.350Z,101126.30
2022-10-14T06:47:08.119Z,101119.82
2022-10-14T06:49:37.464Z,101122.78
2022-10-14T06:52:06.885Z,101121.72
2022-10-14T06:54:39.191Z,101106.30
2022-10-14T06:57:07.375Z,101103.60
2022-10-14T06:59:38.434Z,101102.52
2022-10-14T07:02:08.258Z,101106.86
2022-10-14T07:04:37.769Z,101106.86
2022-10-14T07:07:08.657Z,101114.96
2022-10-14T07:09:37.905Z,101117.92
2022-10-14T07:12:07.388Z,101118.22
2022-10-14T07:14:36.659Z,101129.83
2022-10-14T07:17:06.154Z,101128.77
2022-10-14T07:19:35.615Z,101126.31
2022-10-14T07:22:05.455Z,101122.27
2022-10-14T07:24:35.046Z,101122.01
2022-10-14T07:27:04.812Z,101120.10
2022-10-14T07:29:34.770Z,101117.13
2022-10-14T07:32:05.215Z,101114.99
2022-10-14T07:34:34.571Z,101114.99
2022-10-14T07:37:04.234Z,101112.55
2022-10-14T07:39:34.043Z,101110.66
2022-10-14T07:42:03.575Z,101112.25
2022-10-14T07:44:32.875Z,101109.30
2022-10-14T07:47:03.362Z,101112.25
2022-10-14T07:49:32.758Z,101102.80
2022-10-14T07:52:02.076Z,101106.05
2022-10-14T07:54:32.747Z,101113.36
2022-10-14T07:57:02.287Z,101121.72
2022-10-14T07:59:31.566Z,101110.11
2022-10-14T08:02:01.080Z,101099.55
2022-10-14T08:04:30.353Z,101103.34
2022-10-14T08:06:59.813Z,101095.23
2022-10-14T08:09:30.045Z,101096.03
2022-10-14T08:11:59.361Z,101097.92
2022-10-14T08:14:28.646Z,101098.48
2022-10-14T08:16:58.000Z,101099.53
2022-10-14T08:19:27.531Z,101097.36
2022-10-14T08:21:56.846Z,101096.27
2022-10-14T08:24:26.157Z,101095.73
2022-10-14T08:26:58.020Z,101098.97
2022-10-14T08:29:27.492Z,101087.63
2022-10-14T08:31:56.820Z,101094.64
2022-10-14T08:34:26.699Z,101086.02
2022-10-14T08:36:56.105Z,101089.23
2022-10-14T08:39:25.668Z,101089.77
2022-10-14T08:42:10.386Z,101093.01
2022-10-14T08:44:55.349Z,101091.64
2022-10-14T08:47:27.354Z,101098.68
2022-10-14T08:50:02.380Z,101093.27
2022-10-14T08:52:44.079Z,101091.92
2022-10-14T08:55:25.350Z,101085.42
2022-10-14T08:57:57.989Z,101085.42
2022-10-14T09:00:26.707Z,101084.90
2022-10-14T09:02:56.035Z,101081.37
2022-10-14T09:05:27.021Z,101081.09
2022-10-14T09:07:57.917Z,101085.42
2022-10-14T09:10:36.300Z,101087.84
2022-10-14T09:13:26.126Z,101075.67
2022-10-14T09:16:01.013Z,101076.22
2022-10-14T09:18:54.917Z,101077.86
2022-10-14T09:21:53.516Z,101068.94
2022-10-14T09:24:29.256Z,101068.09
2022-10-14T09:27:06.897Z,101065.63
2022-10-14T09:30:01.878Z,101062.62
2022-10-14T09:32:34.773Z,101062.34
2022-10-14T09:35:04.013Z,101062.60
2022-10-14T09:37:37.695Z,101065.23
2022-10-14T09:40:16.159Z,101061.98
2022-10-14T09:43:11.134Z,101068.47
2022-10-14T09:46:00.374Z,101057.36
2022-10-14T09:48:48.994Z,101061.73
2022-10-14T09:51:30.060Z,101056.84
2022-10-14T09:54:02.616Z,101058.50
2022-10-14T09:56:37.471Z,101056.05
2022-10-14T09:59:05.716Z,101057.38
2022-10-14T10:01:42.570Z,101055.23
2022-10-14T10:04:34.611Z,101053.09
2022-10-14T10:07:10.230Z,101048.23
2022-10-14T10:09:39.754Z,101053.06
2022-10-14T10:12:27.335Z,101045.47
2022-10-14T10:15:06.107Z,101045.70
2022-10-14T10:17:36.986Z,101050.59
2022-10-14T10:20:31.782Z,101042.77
2022-10-14T10:23:20.886Z,101050.59
2022-10-14T10:25:50.828Z,101041.93
2022-10-14T10:28:27.037Z,101035.69
2022-10-14T10:31:02.600Z,101033.50
2022-10-14T10:33:50.426Z,101033.01
2022-10-14T10:36:34.192Z,101026.22
2022-10-14T10:39:18.963Z,101032.43
2022-10-14T10:42:11.068Z,101033.50
2022-10-14T10:45:18.199Z,101032.38
2022-10-14T10:48:01.185Z,101033.44
2022-10-14T10:50:48.995Z,101034.81
2022-10-14T10:53:29.480Z,101029.95
2022-10-14T10:56:10.790Z,101025.09
2022-10-14T10:58:49.031Z,101029.15
2022-10-14T11:01:21.917Z,101028.89
2022-10-14T11:03:54.985Z,101027.53
2022-10-14T11:07:03.708Z,101018.06
2022-10-14T11:10:00.467Z,101018.03
2022-10-14T11:12:35.774Z,101016.36
2022-10-14T11:15:10.845Z,101009.91
2022-10-14T11:17:48.902Z,101013.45
2022-10-14T11:20:40.943Z,101008.27
2022-10-14T11:23:31.620Z,101007.21
2022-10-14T11:26:22.084Z,100989.59
2022-10-14T11:28:54.724Z,100988.20
2022-10-14T11:31:31.737Z,100977.89
2022-10-14T11:34:29.762Z,100982.23
2022-10-14T11:37:15.461Z,100976.69
2022-10-14T11:40:05.802Z,100964.47
2022-10-14T11:42:43.986Z,100965.56
2022-10-14T11:45:31.496Z,100965.65
2022-10-14T11:48:15.847Z,100967.22
2022-10-14T11:50:47.300Z,100965.02
2022-10-14T11:53:22.109Z,100963.96
2022-10-14T11:55:54.654Z,100960.41
2022-10-14T11:58:26.899Z,100960.96
2022-10-14T12:00:58.541Z,100958.00
2022-10-14T12:04:04.794Z,100951.78
2022-10-14T12:06:45.645Z,100947.50
2022-10-14T12:09:23.991Z,100946.49
2022-10-14T12:12:02.870Z,100945.95
2022-10-14T12:14:50.208Z,100939.44
2022-10-14T12:17:49.847Z,100936.22
2022-10-14T12:20:40.543Z,100928.30
2022-10-14T12:23:13.127Z,100922.34
2022-10-14T12:25:43.358Z,100926.61
2022-10-14T12:28:14.654Z,100923.36
2022-10-14T12:30:44.247Z,100922.84
2022-10-14T12:33:22.297Z,100919.58
2022-10-14T12:36:00.288Z,100923.14
2022-10-14T12:38:33.019Z,100931.27
2022-10-14T12:41:09.363Z,100934.81
2022-10-14T12:43:38.769Z,100934.78
2022-10-14T12:46:14.302Z,100941.84
2022-10-14T12:48:50.776Z,100950.22
2022-10-14T12:51:23.152Z,100937.02
2022-10-14T12:53:58.597Z,100934.31
2022-10-14T12:56:42.970Z,100929.91
2022-10-14T12:59:25.709Z,100914.42
2022-10-14T13:02:04.872Z,100924.45
2022-10-14T13:04:35.278Z,100923.86
2022-10-14T13:07:45.797Z,100927.12
2022-10-14T13:10:03.165Z,100925.75
2022-10-14T13:12:39.467Z,100928.47
2022-10-14T13:15:12.069Z,100908.30
2022-10-14T13:17:47.468Z,100933.38
2022-10-14T13:20:38.181Z,100937.34
2022-10-14T13:23:22.756Z,100937.56
2022-10-14T13:25:53.873Z,100932.64
2022-10-14T13:28:35.443Z,100937.70
2022-10-14T13:33:43.569Z,100934.30
2022-10-14T13:36:13.710Z,100935.17
2022-10-14T13:38:46.101Z,100939.01
2022-10-14T13:41:21.248Z,100942.02
2022-10-14T13:43:53.049Z,100933.60
2022-10-14T13:46:28.046Z,100921.64
2022-10-14T13:49:00.164Z,100917.74
2022-10-14T13:51:50.859Z,100922.25
2022-10-14T13:54:25.130Z,100922.30
2022-10-14T13:59:43.910Z,100919.82
2022-10-14T14:02:04.939Z,100923.64
2022-10-14T14:04:35.971Z,100920.70
2022-10-14T14:07:35.193Z,100920.00
2022-10-14T14:09:38.202Z,100909.83
2022-10-14T14:12:07.990Z,100916.02
2022-10-14T14:14:39.170Z,100913.81
2022-10-14T14:17:17.703Z,100908.10
2022-10-14T14:19:50.633Z,100902.22
2022-10-14T14:22:26.672Z,100907.78
2022-10-14T14:25:33.982Z,100911.54
2022-10-14T14:27:53.279Z,100910.91
2022-10-14T14:30:34.072Z,100912.08
2022-10-14T14:33:07.897Z,100911.05
2022-10-14T14:35:36.557Z,100906.12
2022-10-14T14:38:06.022Z,100903.84
2022-10-14T14:40:35.560Z,100900.81
2022-10-14T14:43:05.785Z,100897.98
2022-10-14T14:45:38.262Z,100898.47
2022-10-14T14:48:08.817Z,100906.12
2022-10-14T14:50:42.601Z,100906.03
2022-10-14T14:53:26.764Z,100902.11
2022-10-14T14:56:00.308Z,100903.03
2022-10-14T14:58:35.616Z,100892.25
2022-10-14T15:01:07.797Z,100896.19
2022-10-14T15:04:13.101Z,100893.43
2022-10-14T15:06:31.401Z,100887.31
2022-10-14T15:09:05.380Z,100891.83
2022-10-14T15:11:34.766Z,100899.02
2022-10-14T15:14:05.040Z,100905.55
2022-10-14T15:16:42.909Z,100910.19
2022-10-14T15:19:23.268Z,100903.93
2022-10-14T15:22:29.550Z,100899.33
2022-10-14T15:25:12.253Z,100890.05
2022-10-14T15:27:50.342Z,100890.70
2022-10-14T15:30:30.615Z,100887.95
2022-10-14T15:33:05.449Z,100883.99
2022-10-14T15:35:35.673Z,100876.92
2022-10-14T15:38:12.540Z,100872.67
2022-10-14T15:40:41.142Z,100879.53
2022-10-14T15:43:17.678Z,100874.17
2022-10-14T15:45:55.328Z,100871.50
2022-10-14T15:48:24.696Z,100870.98
2022-10-14T15:50:54.205Z,100863.66
2022-10-14T15:53:25.513Z,100856.64
2022-10-14T15:55:54.896Z,100858.00
2022-10-14T15:58:24.374Z,100859.58
2022-10-14T16:00:53.989Z,100860.14
2022-10-14T16:03:23.369Z,100855.02
2022-10-14T16:05:52.688Z,100852.58
2022-10-14T16:08:22.316Z,100860.95
2022-10-14T16:10:53.320Z,100860.44
2022-10-14T16:13:22.565Z,100855.59
2022-10-14T16:16:00.381Z,100860.53
2022-10-14T16:18:29.823Z,100871.91
2022-10-14T16:20:59.441Z,100871.41
2022-10-14T16:23:33.382Z,100879.05
2022-10-14T16:26:02.363Z,100879.13
2022-10-14T16:28:31.833Z,100868.36
2022-10-14T16:31:01.241Z,100870.33
2022-10-14T16:33:30.702Z,100873.07
2022-10-14T16:36:02.300Z,100870.40
2022-10-14T16:38:31.692Z,100864.52
2022-10-14T16:41:02.828Z,100853.19
2022-10-14T16:43:32.141Z,100840.28
2022-10-14T16:46:03.735Z,100836.00
2022-10-14T16:48:34.690Z,100835.75
2022-10-14T16:51:04.759Z,100836.61
2022-10-14T16:53:45.180Z,100841.50
2022-10-14T16:56:35.885Z,100836.41
2022-10-14T16:59:07.626Z,100832.12
2022-10-14T17:01:37.054Z,100824.59
2022-10-14T17:04:08.888Z,100824.59
2022-10-14T17:06:38.330Z,100831.62
2022-10-14T17:09:08.146Z,100841.10
2022-10-14T17:11:37.684Z,100845.70
2022-10-14T17:14:06.992Z,100835.70
2022-10-14T17:16:36.476Z,100838.95
2022-10-14T17:19:05.751Z,100846.78
2022-10-14T17:21:35.300Z,100841.69
2022-10-14T17:24:05.017Z,100843.33
2022-10-14T17:26:35.063Z,100848.98
2022-10-14T17:29:04.496Z,100844.95
2022-10-14T17:31:34.360Z,100853.05
2022-10-14T17:34:04.072Z,100867.91
2022-10-14T17:36:33.479Z,100868.97
2022-10-14T17:39:03.078Z,100870.06
2022-10-14T17:41:33.010Z,100860.33
2022-10-14T17:44:02.347Z,100859.00
2022-10-14T17:46:32.134Z,100852.23
2022-10-14T17:49:03.998Z,100852.81
2022-10-14T17:51:33.910Z,100849.84
2022-10-14T17:54:08.471Z,100844.47
2022-10-14T17:56:38.775Z,100838.80
2022-10-14T17:59:11.213Z,100833.41
2022-10-14T18:02:00.848Z,100828.00
2022-10-14T18:04:11.744Z,100831.52
2022-10-14T18:06:43.259Z,100835.88
2022-10-14T18:09:13.079Z,100832.63
2022-10-14T18:14:14.664Z,100822.10
2022-10-14T18:16:44.024Z,100827.26
2022-10-14T18:19:17.325Z,100833.20
2022-10-14T18:21:46.669Z,100829.41
2022-10-14T18:24:16.084Z,100824.55
2022-10-14T18:26:45.469Z,100821.59
2022-10-14T18:29:14.796Z,100818.38
2022-10-14T18:31:44.188Z,100811.64
2022-10-14T18:34:14.223Z,100815.41
2022-10-14T18:36:43.569Z,100813.28
2022-10-14T18:39:13.633Z,100801.95
2022-10-14T18:41:43.964Z,100800.61
2022-10-14T18:44:13.295Z,100801.15
2022-10-14T18:46:42.690Z,100804.09
2022-10-14T18:49:12.733Z,100809.23
2022-10-14T18:51:43.433Z,100811.38
2022-10-14T18:54:15.958Z,100817.33
2022-10-14T18:56:45.874Z,100817.88
2022-10-14T18:59:18.029Z,100811.13
2022-10-14T19:01:50.371Z,100803.03
2022-10-14T19:04:21.400Z,100796.31
2022-10-14T19:06:50.898Z,100787.67
2022-10-14T19:09:23.216Z,100787.97
2022-10-14T19:11:53.374Z,100789.59
2022-10-14T19:14:22.879Z,100777.46
2022-10-14T19:16:52.428Z,100785.02
2022-10-14T19:19:22.048Z,100785.27
2022-10-14T19:21:53.602Z,100783.38
2022-10-14T19:24:23.025Z,100785.53
2022-10-14T19:26:54.359Z,100785.55
2022-10-14T19:29:23.720Z,100783.95
2022-10-14T19:31:54.680Z,100787.45
2022-10-14T19:34:27.041Z,100783.67
2022-10-14T19:36:55.372Z,100783.13
2022-10-14T19:39:24.687Z,100790.97
2022-10-14T19:41:54.437Z,100787.70
2022-10-14T19:44:23.883Z,100782.31
2022-10-14T19:46:53.221Z,100776.66
2022-10-14T19:49:22.757Z,100776.92
2022-10-14T19:51:52.241Z,100774.77
2022-10-14T19:54:21.719Z,100775.30
2022-10-14T19:56:51.187Z,100772.89
2022-10-14T19:59:20.855Z,100776.37
2022-10-14T20:01:50.740Z,100782.56
2022-10-14T20:04:23.906Z,100774.22
2022-10-14T20:06:53.310Z,100778.52
2022-10-14T20:09:22.633Z,100781.22
2022-10-14T20:11:53.154Z,100787.16
2022-10-14T20:14:22.512Z,100786.08
2022-10-14T20:16:53.713Z,100782.86
2022-10-14T20:19:22.961Z,100789.58
2022-10-14T20:21:52.275Z,100788.78
2022-10-14T20:24:21.654Z,100783.64
2022-10-14T20:26:51.033Z,100780.67
2022-10-14T20:29:20.470Z,100778.52
2022-10-14T20:31:49.861Z,100780.14
2022-10-14T20:34:19.319Z,100776.64
2022-10-14T20:36:48.655Z,100772.05
2022-10-14T20:39:18.089Z,100777.44
2022-10-14T20:41:47.325Z,100775.56
2022-10-14T20:44:21.615Z,100776.37
2022-10-14T20:46:48.238Z,100787.13
2022-10-14T20:49:17.519Z,100784.97
2022-10-14T20:51:46.757Z,100791.45
2022-10-14T20:54:16.051Z,100777.44
2022-10-14T20:56:45.433Z,100776.64
2022-10-14T20:59:14.876Z,100762.09
2022-10-14T21:01:44.255Z,100782.81
2022-10-14T21:04:13.584Z,100782.84
2022-10-14T21:06:42.889Z,100782.02
2022-10-14T21:09:12.228Z,100775.55
2022-10-14T21:11:43.247Z,100780.93
2022-10-14T21:14:12.801Z,100782.84
2022-10-14T21:16:42.238Z,100776.90
2022-10-14T21:19:12.457Z,100777.45
2022-10-14T21:21:45.521Z,100785.27
2022-10-14T21:24:17.404Z,100782.28
2022-10-14T21:26:49.104Z,100782.56
2022-10-14T21:29:19.241Z,100773.40
2022-10-14T21:31:49.508Z,100775.55
2022-10-14T21:34:18.881Z,100773.42
2022-10-14T21:36:48.284Z,100773.67
2022-10-14T21:39:18.534Z,100770.44
2022-10-14T21:41:48.133Z,100771.00
2022-10-14T21:44:19.813Z,100779.34
2022-10-14T21:46:49.990Z,100777.98
2022-10-14T21:49:19.227Z,100771.53
2022-10-14T21:51:48.600Z,100777.73
2022-10-14T21:54:17.996Z,100776.39
2022-10-14T21:56:47.308Z,100772.34
2022-10-14T21:59:17.359Z,100763.70
2022-10-14T22:01:46.707Z,100756.70
2022-10-14T22:04:16.175Z,100755.36
2022-10-14T22:06:45.674Z,100753.22
2022-10-14T22:09:15.002Z,100758.07
2022-10-14T22:11:44.317Z,100752.14
2022-10-14T22:14:17.438Z,100747.00
2022-10-14T22:16:47.957Z,100747.30
2022-10-14T22:19:17.277Z,100745.13
2022-10-14T22:21:50.252Z,100745.14
2022-10-14T22:24:19.526Z,100754.02
2022-10-14T22:26:51.842Z,100752.13
2022-10-14T22:29:21.525Z,100752.68
2022-10-14T22:31:50.764Z,100746.75
2022-10-14T22:34:20.100Z,100740.82
2022-10-14T22:36:49.396Z,100745.14
2022-10-14T22:39:19.181Z,100743.80
2022-10-14T22:41:48.984Z,100741.63
2022-10-14T22:44:18.427Z,100740.80
2022-10-14T22:46:47.676Z,100741.08
2022-10-14T22:49:17.478Z,100730.28
2022-10-14T22:51:46.837Z,100727.91
2022-10-14T22:54:16.119Z,100731.40
2022-10-14T22:56:45.564Z,100728.96
2022-10-14T22:59:14.942Z,100722.78
2022-10-14T23:01:44.739Z,100727.34
2022-10-14T23:04:14.069Z,100719.78
2022-10-14T23:06:45.213Z,100717.66
2022-10-14T23:09:14.536Z,100723.32
2022-10-14T23:11:44.041Z,100721.97
2022-10-14T23:14:13.284Z,100711.98
2022-10-14T23:16:42.615Z,100707.95
2022-10-14T23:19:11.937Z,100709.30
2022-10-14T23:21:41.540Z,100706.31
2022-10-14T23:24:12.458Z,100709.56
2022-10-14T23:26:41.824Z,100709.81
2022-10-14T23:29:12.418Z,100710.10
2022-10-14T23:31:42.314Z,100702.54
2022-10-14T23:34:15.272Z,100701.73
2022-10-14T23:36:44.701Z,100709.81
2022-10-14T23:39:14.328Z,100715.20
2022-10-14T23:41:43.682Z,100717.09
2022-10-14T23:44:13.267Z,100712.78
2022-10-14T23:46:43.055Z,100705.25
2022-10-14T23:49:25.644Z,100711.99
2022-10-14T23:51:43.796Z,100713.33
2022-10-14T23:54:13.037Z,100716.03
2022-10-14T23:56:42.399Z,100716.55
2022-10-14T23:59:12.311Z,100716.27
